Terminal Aerodrome Forecast
Issued by NWS

Home | Current Version | Previous Version | Text Only | Print | Product List | Glossary On
Versions: 1 2 3 4 5 6 7 8 9 10 11 12
394
FTUS46 KMTR 221121
TAFSJC
TAF
KSJC 221121Z 2212/2312 14007KT P6SM FEW250
     FM222000 34005KT P6SM BKN250
     FM230000 32007KT P6SM BKN200
     FM230400 32004KT P6SM OVC200=

USA.gov is the U.S. government's official web portal to all federal, state and local government web resources and services.